sensor_id;sensor_type;location;lat;lon;timestamp;P1;durP1;ratioP1;P2;durP2;ratioP2
59006;SDS011;44792;52.760;6.726;2023-04-25T00:02:20;19.30;;;3.70;;
59006;SDS011;44792;52.760;6.726;2023-04-25T00:04:47;18.42;;;3.50;;
59006;SDS011;44792;52.760;6.726;2023-04-25T00:07:14;9.35;;;4.05;;
59006;SDS011;44792;52.760;6.726;2023-04-25T00:09:41;13.57;;;3.00;;
59006;SDS011;44792;52.760;6.726;2023-04-25T00:12:07;14.48;;;3.65;;
59006;SDS011;44792;52.760;6.726;2023-04-25T00:14:33;12.88;;;3.20;;
59006;SDS011;44792;52.760;6.726;2023-04-25T00:16:59;14.60;;;4.05;;
59006;SDS011;44792;52.760;6.726;2023-04-25T00:19:25;12.88;;;3.47;;
59006;SDS011;44792;52.760;6.726;2023-04-25T00:21:53;14.60;;;4.30;;
59006;SDS011;44792;52.760;6.726;2023-04-25T00:24:22;19.20;;;4.05;;
59006;SDS011;44792;52.760;6.726;2023-04-25T00:26:48;21.05;;;4.05;;
59006;SDS011;44792;52.760;6.726;2023-04-25T00:29:13;9.77;;;3.53;;
59006;SDS011;44792;52.760;6.726;2023-04-25T00:31:39;13.82;;;3.20;;
59006;SDS011;44792;52.760;6.726;2023-04-25T00:34:08;15.88;;;4.00;;
59006;SDS011;44792;52.760;6.726;2023-04-25T00:36:34;11.73;;;4.47;;
59006;SDS011;44792;52.760;6.726;2023-04-25T00:38:59;10.30;;;2.65;;
59006;SDS011;44792;52.760;6.726;2023-04-25T00:41:25;10.30;;;4.28;;
59006;SDS011;44792;52.760;6.726;2023-04-25T00:43:51;17.45;;;4.07;;
59006;SDS011;44792;52.760;6.726;2023-04-25T00:46:19;18.65;;;4.55;;
59006;SDS011;44792;52.760;6.726;2023-04-25T00:48:44;10.75;;;3.38;;
59006;SDS011;44792;52.760;6.726;2023-04-25T00:51:11;11.52;;;3.75;;
59006;SDS011;44792;52.760;6.726;2023-04-25T00:53:41;9.05;;;3.08;;
59006;SDS011;44792;52.760;6.726;2023-04-25T00:56:07;10.32;;;3.17;;
59006;SDS011;44792;52.760;6.726;2023-04-25T00:58:33;16.08;;;3.55;;
59006;SDS011;44792;52.760;6.726;2023-04-25T01:00:59;13.95;;;3.63;;
59006;SDS011;44792;52.760;6.726;2023-04-25T01:03:26;9.88;;;3.08;;
59006;SDS011;44792;52.760;6.726;2023-04-25T01:05:53;16.40;;;3.28;;
59006;SDS011;44792;52.760;6.726;2023-04-25T01:08:19;13.38;;;3.10;;
59006;SDS011;44792;52.760;6.726;2023-04-25T01:10:48;16.20;;;4.18;;
59006;SDS011;44792;52.760;6.726;2023-04-25T01:13:14;16.45;;;4.82;;
59006;SDS011;44792;52.760;6.726;2023-04-25T01:15:39;12.00;;;4.32;;
59006;SDS011;44792;52.760;6.726;2023-04-25T01:18:05;15.88;;;3.47;;
59006;SDS011;44792;52.760;6.726;2023-04-25T01:20:32;10.85;;;2.97;;
59006;SDS011;44792;52.760;6.726;2023-04-25T01:22:58;14.13;;;3.33;;
59006;SDS011;44792;52.760;6.726;2023-04-25T01:25:24;13.38;;;3.30;;
59006;SDS011;44792;52.760;6.726;2023-04-25T01:27:50;7.68;;;3.28;;
59006;SDS011;44792;52.760;6.726;2023-04-25T01:30:17;12.15;;;3.50;;
59006;SDS011;44792;52.760;6.726;2023-04-25T01:32:42;10.23;;;3.58;;
59006;SDS011;44792;52.760;6.726;2023-04-25T01:35:09;13.98;;;3.40;;
59006;SDS011;44792;52.760;6.726;2023-04-25T01:37:39;10.05;;;3.15;;
59006;SDS011;44792;52.760;6.726;2023-04-25T01:40:06;15.18;;;3.13;;
59006;SDS011;44792;52.760;6.726;2023-04-25T01:42:34;13.25;;;3.33;;
59006;SDS011;44792;52.760;6.726;2023-04-25T01:45:01;11.70;;;4.57;;
59006;SDS011;44792;52.760;6.726;2023-04-25T01:47:27;14.02;;;3.83;;
59006;SDS011;44792;52.760;6.726;2023-04-25T01:49:53;15.20;;;3.40;;
59006;SDS011;44792;52.760;6.726;2023-04-25T01:52:19;8.82;;;3.35;;
59006;SDS011;44792;52.760;6.726;2023-04-25T01:54:45;12.63;;;3.42;;
59006;SDS011;44792;52.760;6.726;2023-04-25T01:57:11;12.55;;;3.95;;
59006;SDS011;44792;52.760;6.726;2023-04-25T01:59:37;12.68;;;3.30;;
59006;SDS011;44792;52.760;6.726;2023-04-25T02:02:03;18.55;;;3.58;;
59006;SDS011;44792;52.760;6.726;2023-04-25T02:04:29;15.95;;;3.53;;
59006;SDS011;44792;52.760;6.726;2023-04-25T02:06:55;16.40;;;3.53;;
59006;SDS011;44792;52.760;6.726;2023-04-25T02:09:21;11.68;;;4.45;;
59006;SDS011;44792;52.760;6.726;2023-04-25T02:11:47;23.38;;;4.53;;
59006;SDS011;44792;52.760;6.726;2023-04-25T02:14:12;12.60;;;3.53;;
59006;SDS011;44792;52.760;6.726;2023-04-25T02:16:38;10.23;;;3.53;;
59006;SDS011;44792;52.760;6.726;2023-04-25T02:19:04;12.43;;;3.30;;
59006;SDS011;44792;52.760;6.726;2023-04-25T02:21:31;14.63;;;3.13;;
59006;SDS011;44792;52.760;6.726;2023-04-25T02:23:57;15.10;;;3.65;;
59006;SDS011;44792;52.760;6.726;2023-04-25T02:26:23;12.98;;;3.45;;
59006;SDS011;44792;52.760;6.726;2023-04-25T02:28:49;20.45;;;4.22;;
59006;SDS011;44792;52.760;6.726;2023-04-25T02:31:16;11.30;;;3.22;;
59006;SDS011;44792;52.760;6.726;2023-04-25T02:33:42;10.68;;;3.90;;
59006;SDS011;44792;52.760;6.726;2023-04-25T02:36:08;16.23;;;4.75;;
59006;SDS011;44792;52.760;6.726;2023-04-25T02:38:34;14.82;;;3.60;;
59006;SDS011;44792;52.760;6.726;2023-04-25T02:41:00;13.65;;;3.03;;
59006;SDS011;44792;52.760;6.726;2023-04-25T02:43:25;10.45;;;2.75;;
59006;SDS011;44792;52.760;6.726;2023-04-25T02:45:51;6.80;;;2.97;;
59006;SDS011;44792;52.760;6.726;2023-04-25T02:48:17;13.57;;;3.40;;
59006;SDS011;44792;52.760;6.726;2023-04-25T02:50:43;9.70;;;2.83;;
59006;SDS011;44792;52.760;6.726;2023-04-25T02:53:08;15.63;;;4.15;;
59006;SDS011;44792;52.760;6.726;2023-04-25T02:55:34;13.70;;;3.38;;
59006;SDS011;44792;52.760;6.726;2023-04-25T02:58:00;12.80;;;2.92;;
59006;SDS011;44792;52.760;6.726;2023-04-25T03:00:26;10.18;;;2.83;;
59006;SDS011;44792;52.760;6.726;2023-04-25T03:02:51;9.25;;;3.13;;
59006;SDS011;44792;52.760;6.726;2023-04-25T03:05:17;12.18;;;3.00;;
59006;SDS011;44792;52.760;6.726;2023-04-25T03:07:43;11.63;;;3.55;;
59006;SDS011;44792;52.760;6.726;2023-04-25T03:10:10;10.73;;;2.55;;
59006;SDS011;44792;52.760;6.726;2023-04-25T03:12:36;10.45;;;2.97;;
59006;SDS011;44792;52.760;6.726;2023-04-25T03:15:02;8.15;;;2.60;;
59006;SDS011;44792;52.760;6.726;2023-04-25T03:17:28;7.55;;;2.35;;
59006;SDS011;44792;52.760;6.726;2023-04-25T03:19:54;9.90;;;2.70;;
59006;SDS011;44792;52.760;6.726;2023-04-25T03:22:20;11.02;;;3.15;;
59006;SDS011;44792;52.760;6.726;2023-04-25T03:24:46;10.23;;;2.88;;
59006;SDS011;44792;52.760;6.726;2023-04-25T03:27:12;8.77;;;2.88;;
59006;SDS011;44792;52.760;6.726;2023-04-25T03:29:38;10.70;;;3.78;;
59006;SDS011;44792;52.760;6.726;2023-04-25T03:32:05;10.77;;;3.33;;
59006;SDS011;44792;52.760;6.726;2023-04-25T03:34:31;5.13;;;2.08;;
59006;SDS011;44792;52.760;6.726;2023-04-25T03:36:57;6.47;;;1.98;;
59006;SDS011;44792;52.760;6.726;2023-04-25T03:39:22;8.27;;;3.13;;
59006;SDS011;44792;52.760;6.726;2023-04-25T03:41:48;12.43;;;2.75;;
59006;SDS011;44792;52.760;6.726;2023-04-25T03:44:14;12.95;;;3.20;;
59006;SDS011;44792;52.760;6.726;2023-04-25T03:46:40;8.85;;;2.25;;
59006;SDS011;44792;52.760;6.726;2023-04-25T03:49:05;6.30;;;2.25;;
59006;SDS011;44792;52.760;6.726;2023-04-25T03:51:31;8.60;;;2.35;;
59006;SDS011;44792;52.760;6.726;2023-04-25T03:53:57;8.95;;;2.53;;
59006;SDS011;44792;52.760;6.726;2023-04-25T03:56:23;5.97;;;2.28;;
59006;SDS011;44792;52.760;6.726;2023-04-25T03:58:48;4.15;;;1.90;;
59006;SDS011;44792;52.760;6.726;2023-04-25T04:01:14;7.88;;;2.28;;
59006;SDS011;44792;52.760;6.726;2023-04-25T04:03:40;10.27;;;2.00;;
59006;SDS011;44792;52.760;6.726;2023-04-25T04:06:06;8.32;;;2.92;;
59006;SDS011;44792;52.760;6.726;2023-04-25T04:08:32;6.78;;;2.15;;
59006;SDS011;44792;52.760;6.726;2023-04-25T04:10:58;9.40;;;2.13;;
59006;SDS011;44792;52.760;6.726;2023-04-25T04:13:28;5.00;;;1.95;;
59006;SDS011;44792;52.760;6.726;2023-04-25T04:15:54;9.30;;;1.85;;
59006;SDS011;44792;52.760;6.726;2023-04-25T04:18:20;3.75;;;1.90;;
59006;SDS011;44792;52.760;6.726;2023-04-25T04:20:46;6.72;;;2.40;;
59006;SDS011;44792;52.760;6.726;2023-04-25T04:23:12;10.13;;;2.15;;
59006;SDS011;44792;52.760;6.726;2023-04-25T04:25:38;4.35;;;1.60;;
59006;SDS011;44792;52.760;6.726;2023-04-25T04:28:05;5.55;;;1.80;;
59006;SDS011;44792;52.760;6.726;2023-04-25T04:30:31;8.30;;;2.20;;
59006;SDS011;44792;52.760;6.726;2023-04-25T04:32:58;3.92;;;1.80;;
59006;SDS011;44792;52.760;6.726;2023-04-25T04:35:25;4.72;;;1.83;;
59006;SDS011;44792;52.760;6.726;2023-04-25T04:37:51;4.45;;;1.92;;
59006;SDS011;44792;52.760;6.726;2023-04-25T04:40:17;5.90;;;2.03;;
59006;SDS011;44792;52.760;6.726;2023-04-25T04:42:44;2.63;;;1.88;;
59006;SDS011;44792;52.760;6.726;2023-04-25T04:45:13;2.53;;;1.52;;
59006;SDS011;44792;52.760;6.726;2023-04-25T04:47:39;8.15;;;1.55;;
59006;SDS011;44792;52.760;6.726;2023-04-25T04:50:09;4.38;;;1.75;;
59006;SDS011;44792;52.760;6.726;2023-04-25T04:52:35;5.32;;;1.60;;
59006;SDS011;44792;52.760;6.726;2023-04-25T04:55:02;4.68;;;1.48;;
59006;SDS011;44792;52.760;6.726;2023-04-25T04:57:29;4.65;;;1.75;;
59006;SDS011;44792;52.760;6.726;2023-04-25T04:59:56;6.82;;;1.90;;
59006;SDS011;44792;52.760;6.726;2023-04-25T05:02:21;4.95;;;1.98;;
59006;SDS011;44792;52.760;6.726;2023-04-25T05:04:47;3.05;;;1.50;;
59006;SDS011;44792;52.760;6.726;2023-04-25T05:07:13;4.13;;;1.77;;
59006;SDS011;44792;52.760;6.726;2023-04-25T05:09:38;8.38;;;2.13;;
59006;SDS011;44792;52.760;6.726;2023-04-25T05:12:04;7.65;;;1.65;;
59006;SDS011;44792;52.760;6.726;2023-04-25T05:14:30;7.18;;;1.77;;
59006;SDS011;44792;52.760;6.726;2023-04-25T05:16:56;6.78;;;1.92;;
59006;SDS011;44792;52.760;6.726;2023-04-25T05:19:22;4.82;;;1.70;;
59006;SDS011;44792;52.760;6.726;2023-04-25T05:21:48;4.70;;;1.83;;
59006;SDS011;44792;52.760;6.726;2023-04-25T05:24:15;8.35;;;2.15;;
59006;SDS011;44792;52.760;6.726;2023-04-25T05:26:40;5.03;;;2.35;;
59006;SDS011;44792;52.760;6.726;2023-04-25T05:29:06;6.68;;;1.85;;
59006;SDS011;44792;52.760;6.726;2023-04-25T05:31:32;5.05;;;2.00;;
59006;SDS011;44792;52.760;6.726;2023-04-25T05:33:58;7.50;;;2.47;;
59006;SDS011;44792;52.760;6.726;2023-04-25T05:36:23;5.40;;;2.13;;
59006;SDS011;44792;52.760;6.726;2023-04-25T05:38:49;4.45;;;1.90;;
59006;SDS011;44792;52.760;6.726;2023-04-25T05:41:15;4.38;;;2.58;;
59006;SDS011;44792;52.760;6.726;2023-04-25T05:43:41;4.57;;;1.83;;
59006;SDS011;44792;52.760;6.726;2023-04-25T05:46:11;4.13;;;1.63;;
59006;SDS011;44792;52.760;6.726;2023-04-25T05:48:37;13.27;;;2.15;;
59006;SDS011;44792;52.760;6.726;2023-04-25T05:51:03;11.43;;;2.65;;
59006;SDS011;44792;52.760;6.726;2023-04-25T05:53:29;7.07;;;2.13;;
59006;SDS011;44792;52.760;6.726;2023-04-25T05:55:55;7.15;;;2.08;;
59006;SDS011;44792;52.760;6.726;2023-04-25T05:58:20;9.10;;;2.20;;
59006;SDS011;44792;52.760;6.726;2023-04-25T06:00:46;6.85;;;2.15;;
59006;SDS011;44792;52.760;6.726;2023-04-25T06:03:12;7.97;;;3.13;;
59006;SDS011;44792;52.760;6.726;2023-04-25T06:05:43;9.88;;;2.38;;
59006;SDS011;44792;52.760;6.726;2023-04-25T06:08:09;7.00;;;2.05;;
59006;SDS011;44792;52.760;6.726;2023-04-25T06:10:35;6.68;;;2.10;;
59006;SDS011;44792;52.760;6.726;2023-04-25T06:13:01;7.63;;;2.20;;
59006;SDS011;44792;52.760;6.726;2023-04-25T06:15:27;9.77;;;1.92;;
59006;SDS011;44792;52.760;6.726;2023-04-25T06:17:53;13.77;;;3.85;;
59006;SDS011;44792;52.760;6.726;2023-04-25T06:20:19;10.77;;;2.42;;
59006;SDS011;44792;52.760;6.726;2023-04-25T06:22:48;7.43;;;2.50;;
59006;SDS011;44792;52.760;6.726;2023-04-25T06:25:15;9.73;;;1.73;;
59006;SDS011;44792;52.760;6.726;2023-04-25T06:27:41;11.25;;;2.97;;
59006;SDS011;44792;52.760;6.726;2023-04-25T06:30:06;8.13;;;2.58;;
59006;SDS011;44792;52.760;6.726;2023-04-25T06:32:32;5.57;;;1.75;;
59006;SDS011;44792;52.760;6.726;2023-04-25T06:34:59;9.93;;;2.15;;
59006;SDS011;44792;52.760;6.726;2023-04-25T06:37:25;4.28;;;1.90;;
59006;SDS011;44792;52.760;6.726;2023-04-25T06:39:51;5.25;;;1.77;;
59006;SDS011;44792;52.760;6.726;2023-04-25T06:42:17;8.50;;;2.05;;
59006;SDS011;44792;52.760;6.726;2023-04-25T06:44:42;4.40;;;1.85;;
59006;SDS011;44792;52.760;6.726;2023-04-25T06:47:08;6.82;;;1.90;;
59006;SDS011;44792;52.760;6.726;2023-04-25T06:49:34;4.43;;;1.65;;
59006;SDS011;44792;52.760;6.726;2023-04-25T06:51:59;10.25;;;1.95;;
59006;SDS011;44792;52.760;6.726;2023-04-25T06:54:25;10.45;;;2.72;;
59006;SDS011;44792;52.760;6.726;2023-04-25T06:56:53;7.20;;;1.88;;
59006;SDS011;44792;52.760;6.726;2023-04-25T06:59:19;4.32;;;1.63;;
59006;SDS011;44792;52.760;6.726;2023-04-25T07:01:45;10.52;;;2.28;;
59006;SDS011;44792;52.760;6.726;2023-04-25T07:04:10;4.75;;;1.70;;
59006;SDS011;44792;52.760;6.726;2023-04-25T07:06:36;5.20;;;2.08;;
59006;SDS011;44792;52.760;6.726;2023-04-25T07:09:07;4.57;;;1.80;;
59006;SDS011;44792;52.760;6.726;2023-04-25T07:11:33;10.30;;;2.50;;
59006;SDS011;44792;52.760;6.726;2023-04-25T07:13:59;8.85;;;3.33;;
59006;SDS011;44792;52.760;6.726;2023-04-25T07:16:25;7.32;;;2.45;;
59006;SDS011;44792;52.760;6.726;2023-04-25T07:18:51;3.67;;;2.22;;
59006;SDS011;44792;52.760;6.726;2023-04-25T07:21:17;3.75;;;1.95;;
59006;SDS011;44792;52.760;6.726;2023-04-25T07:23:42;4.38;;;1.92;;
59006;SDS011;44792;52.760;6.726;2023-04-25T07:26:08;10.90;;;3.03;;
59006;SDS011;44792;52.760;6.726;2023-04-25T07:28:34;5.45;;;1.80;;
59006;SDS011;44792;52.760;6.726;2023-04-25T07:30:59;6.35;;;2.60;;
59006;SDS011;44792;52.760;6.726;2023-04-25T07:33:25;3.63;;;2.08;;
59006;SDS011;44792;52.760;6.726;2023-04-25T07:35:51;7.15;;;1.73;;
59006;SDS011;44792;52.760;6.726;2023-04-25T07:38:17;5.97;;;1.70;;
59006;SDS011;44792;52.760;6.726;2023-04-25T07:40:43;5.78;;;1.90;;
59006;SDS011;44792;52.760;6.726;2023-04-25T07:43:09;4.03;;;1.67;;
59006;SDS011;44792;52.760;6.726;2023-04-25T07:45:37;9.10;;;1.98;;
59006;SDS011;44792;52.760;6.726;2023-04-25T07:48:03;3.65;;;1.90;;
59006;SDS011;44792;52.760;6.726;2023-04-25T07:50:29;6.97;;;1.52;;
59006;SDS011;44792;52.760;6.726;2023-04-25T07:52:54;7.00;;;1.40;;
59006;SDS011;44792;52.760;6.726;2023-04-25T07:55:20;3.60;;;1.27;;
59006;SDS011;44792;52.760;6.726;2023-04-25T07:57:46;3.53;;;2.00;;
59006;SDS011;44792;52.760;6.726;2023-04-25T08:00:12;7.82;;;2.22;;
59006;SDS011;44792;52.760;6.726;2023-04-25T08:02:38;3.65;;;1.58;;
59006;SDS011;44792;52.760;6.726;2023-04-25T08:05:04;6.97;;;2.92;;
59006;SDS011;44792;52.760;6.726;2023-04-25T08:07:30;5.75;;;1.75;;
59006;SDS011;44792;52.760;6.726;2023-04-25T08:09:55;7.22;;;1.60;;
59006;SDS011;44792;52.760;6.726;2023-04-25T08:12:21;4.95;;;1.60;;
59006;SDS011;44792;52.760;6.726;2023-04-25T08:14:47;7.18;;;1.80;;
59006;SDS011;44792;52.760;6.726;2023-04-25T08:17:12;7.80;;;1.70;;
59006;SDS011;44792;52.760;6.726;2023-04-25T08:19:38;5.75;;;2.00;;
59006;SDS011;44792;52.760;6.726;2023-04-25T08:22:04;2.97;;;1.50;;
59006;SDS011;44792;52.760;6.726;2023-04-25T08:24:30;6.57;;;1.77;;
59006;SDS011;44792;52.760;6.726;2023-04-25T08:26:55;4.45;;;1.50;;
59006;SDS011;44792;52.760;6.726;2023-04-25T08:29:21;3.00;;;1.73;;
59006;SDS011;44792;52.760;6.726;2023-04-25T08:31:49;2.20;;;1.35;;
59006;SDS011;44792;52.760;6.726;2023-04-25T08:34:15;4.30;;;1.60;;
59006;SDS011;44792;52.760;6.726;2023-04-25T08:36:41;3.60;;;1.20;;
59006;SDS011;44792;52.760;6.726;2023-04-25T08:39:07;4.50;;;2.00;;
59006;SDS011;44792;52.760;6.726;2023-04-25T08:41:32;2.97;;;1.40;;
59006;SDS011;44792;52.760;6.726;2023-04-25T08:43:58;3.42;;;1.50;;
59006;SDS011;44792;52.760;6.726;2023-04-25T08:46:25;2.83;;;1.40;;
59006;SDS011;44792;52.760;6.726;2023-04-25T08:48:52;3.15;;;1.90;;
59006;SDS011;44792;52.760;6.726;2023-04-25T08:51:22;7.82;;;2.00;;
59006;SDS011;44792;52.760;6.726;2023-04-25T08:53:52;6.97;;;1.95;;
59006;SDS011;44792;52.760;6.726;2023-04-25T08:56:18;3.03;;;1.52;;
59006;SDS011;44792;52.760;6.726;2023-04-25T08:58:48;3.85;;;1.60;;
59006;SDS011;44792;52.760;6.726;2023-04-25T09:01:17;1.70;;;1.42;;
59006;SDS011;44792;52.760;6.726;2023-04-25T09:03:44;5.95;;;1.48;;
59006;SDS011;44792;52.760;6.726;2023-04-25T09:06:12;4.10;;;1.65;;
59006;SDS011;44792;52.760;6.726;2023-04-25T09:08:38;5.88;;;3.30;;
59006;SDS011;44792;52.760;6.726;2023-04-25T09:11:06;8.23;;;2.05;;
59006;SDS011;44792;52.760;6.726;2023-04-25T09:13:32;4.95;;;1.63;;
59006;SDS011;44792;52.760;6.726;2023-04-25T09:15:58;2.97;;;1.60;;
59006;SDS011;44792;52.760;6.726;2023-04-25T09:18:25;5.15;;;2.78;;
59006;SDS011;44792;52.760;6.726;2023-04-25T09:20:51;5.85;;;1.70;;
59006;SDS011;44792;52.760;6.726;2023-04-25T09:23:19;3.22;;;1.58;;
59006;SDS011;44792;52.760;6.726;2023-04-25T09:25:53;2.92;;;1.42;;
59006;SDS011;44792;52.760;6.726;2023-04-25T09:30:48;3.70;;;2.05;;
59006;SDS011;44792;52.760;6.726;2023-04-25T09:33:13;4.45;;;1.55;;
59006;SDS011;44792;52.760;6.726;2023-04-25T09:35:40;8.57;;;1.88;;
59006;SDS011;44792;52.760;6.726;2023-04-25T09:38:12;5.28;;;1.67;;
59006;SDS011;44792;52.760;6.726;2023-04-25T09:40:42;4.05;;;2.10;;
59006;SDS011;44792;52.760;6.726;2023-04-25T09:43:20;3.45;;;1.80;;
59006;SDS011;44792;52.760;6.726;2023-04-25T09:45:47;3.95;;;1.55;;
59006;SDS011;44792;52.760;6.726;2023-04-25T09:48:20;4.75;;;1.52;;
59006;SDS011;44792;52.760;6.726;2023-04-25T09:53:32;5.68;;;1.55;;
59006;SDS011;44792;52.760;6.726;2023-04-25T09:55:59;6.10;;;1.58;;
59006;SDS011;44792;52.760;6.726;2023-04-25T09:58:25;2.78;;;1.48;;
59006;SDS011;44792;52.760;6.726;2023-04-25T10:00:55;3.63;;;1.40;;
59006;SDS011;44792;52.760;6.726;2023-04-25T10:03:25;6.07;;;1.70;;
59006;SDS011;44792;52.760;6.726;2023-04-25T10:05:52;3.45;;;1.83;;
59006;SDS011;44792;52.760;6.726;2023-04-25T10:08:19;1.95;;;1.05;;
59006;SDS011;44792;52.760;6.726;2023-04-25T10:10:46;3.13;;;1.30;;
59006;SDS011;44792;52.760;6.726;2023-04-25T10:13:13;2.65;;;1.25;;
59006;SDS011;44792;52.760;6.726;2023-04-25T10:15:40;1.00;;;1.00;;
59006;SDS011;44792;52.760;6.726;2023-04-25T10:18:06;4.55;;;1.45;;
59006;SDS011;44792;52.760;6.726;2023-04-25T10:20:33;3.95;;;1.38;;
59006;SDS011;44792;52.760;6.726;2023-04-25T10:23:03;4.88;;;1.58;;
59006;SDS011;44792;52.760;6.726;2023-04-25T10:25:34;2.00;;;1.50;;
59006;SDS011;44792;52.760;6.726;2023-04-25T10:28:00;6.00;;;1.60;;
59006;SDS011;44792;52.760;6.726;2023-04-25T10:30:29;3.65;;;1.42;;
59006;SDS011;44792;52.760;6.726;2023-04-25T10:32:55;3.55;;;1.20;;
59006;SDS011;44792;52.760;6.726;2023-04-25T10:35:24;6.82;;;2.00;;
59006;SDS011;44792;52.760;6.726;2023-04-25T10:38:10;3.58;;;1.40;;
59006;SDS011;44792;52.760;6.726;2023-04-25T10:40:39;3.42;;;1.30;;
59006;SDS011;44792;52.760;6.726;2023-04-25T10:45:55;5.43;;;1.75;;
59006;SDS011;44792;52.760;6.726;2023-04-25T10:48:25;5.45;;;2.28;;
59006;SDS011;44792;52.760;6.726;2023-04-25T10:51:06;6.35;;;2.03;;
59006;SDS011;44792;52.760;6.726;2023-04-25T10:53:46;6.13;;;2.05;;
59006;SDS011;44792;52.760;6.726;2023-04-25T10:56:28;7.57;;;2.50;;
59006;SDS011;44792;52.760;6.726;2023-04-25T11:01:41;2.67;;;1.55;;
59006;SDS011;44792;52.760;6.726;2023-04-25T11:04:21;5.95;;;1.90;;
59006;SDS011;44792;52.760;6.726;2023-04-25T11:09:40;4.50;;;1.63;;
59006;SDS011;44792;52.760;6.726;2023-04-25T11:12:09;7.22;;;1.90;;
59006;SDS011;44792;52.760;6.726;2023-04-25T11:14:36;1.98;;;1.55;;
59006;SDS011;44792;52.760;6.726;2023-04-25T11:17:02;6.30;;;2.38;;
59006;SDS011;44792;52.760;6.726;2023-04-25T11:19:28;4.25;;;2.00;;
59006;SDS011;44792;52.760;6.726;2023-04-25T11:21:55;3.65;;;1.73;;
59006;SDS011;44792;52.760;6.726;2023-04-25T11:24:31;4.45;;;1.83;;
59006;SDS011;44792;52.760;6.726;2023-04-25T11:26:58;6.78;;;2.10;;
59006;SDS011;44792;52.760;6.726;2023-04-25T11:29:34;4.78;;;1.67;;
59006;SDS011;44792;52.760;6.726;2023-04-25T11:32:00;5.15;;;1.67;;
59006;SDS011;44792;52.760;6.726;2023-04-25T11:34:27;4.80;;;1.92;;
59006;SDS011;44792;52.760;6.726;2023-04-25T11:36:58;7.00;;;2.55;;
59006;SDS011;44792;52.760;6.726;2023-04-25T11:39:27;7.18;;;2.05;;
59006;SDS011;44792;52.760;6.726;2023-04-25T11:41:54;2.60;;;1.40;;
59006;SDS011;44792;52.760;6.726;2023-04-25T11:44:20;3.33;;;1.95;;
59006;SDS011;44792;52.760;6.726;2023-04-25T11:46:47;3.42;;;1.70;;
59006;SDS011;44792;52.760;6.726;2023-04-25T11:49:13;11.18;;;2.63;;
59006;SDS011;44792;52.760;6.726;2023-04-25T11:54:10;6.45;;;1.50;;
59006;SDS011;44792;52.760;6.726;2023-04-25T11:56:37;5.60;;;1.77;;
59006;SDS011;44792;52.760;6.726;2023-04-25T11:59:06;4.10;;;1.60;;
59006;SDS011;44792;52.760;6.726;2023-04-25T12:01:32;3.35;;;1.30;;
59006;SDS011;44792;52.760;6.726;2023-04-25T12:04:12;8.32;;;3.47;;
59006;SDS011;44792;52.760;6.726;2023-04-25T12:06:42;3.85;;;1.35;;
59006;SDS011;44792;52.760;6.726;2023-04-25T12:09:12;4.47;;;2.30;;
59006;SDS011;44792;52.760;6.726;2023-04-25T12:11:42;1.98;;;1.25;;
59006;SDS011;44792;52.760;6.726;2023-04-25T12:14:10;4.63;;;2.88;;
59006;SDS011;44792;52.760;6.726;2023-04-25T12:16:42;2.97;;;1.30;;
59006;SDS011;44792;52.760;6.726;2023-04-25T12:19:09;3.72;;;1.63;;
59006;SDS011;44792;52.760;6.726;2023-04-25T12:21:35;9.65;;;1.58;;
59006;SDS011;44792;52.760;6.726;2023-04-25T12:26:51;4.47;;;1.73;;
59006;SDS011;44792;52.760;6.726;2023-04-25T12:29:26;3.85;;;1.48;;
59006;SDS011;44792;52.760;6.726;2023-04-25T12:31:54;5.45;;;1.20;;
59006;SDS011;44792;52.760;6.726;2023-04-25T12:34:20;7.22;;;1.83;;
59006;SDS011;44792;52.760;6.726;2023-04-25T12:36:47;4.53;;;1.42;;
59006;SDS011;44792;52.760;6.726;2023-04-25T12:39:14;5.55;;;1.58;;
59006;SDS011;44792;52.760;6.726;2023-04-25T12:41:40;3.42;;;1.95;;
59006;SDS011;44792;52.760;6.726;2023-04-25T12:44:06;7.60;;;1.40;;
59006;SDS011;44792;52.760;6.726;2023-04-25T12:46:32;1.88;;;1.38;;
59006;SDS011;44792;52.760;6.726;2023-04-25T12:48:57;3.72;;;1.60;;
59006;SDS011;44792;52.760;6.726;2023-04-25T12:51:23;3.28;;;2.08;;
59006;SDS011;44792;52.760;6.726;2023-04-25T12:53:50;5.47;;;1.35;;
59006;SDS011;44792;52.760;6.726;2023-04-25T12:56:17;7.35;;;3.10;;
59006;SDS011;44792;52.760;6.726;2023-04-25T12:58:43;4.13;;;2.47;;
59006;SDS011;44792;52.760;6.726;2023-04-25T13:01:09;4.40;;;1.60;;
59006;SDS011;44792;52.760;6.726;2023-04-25T13:03:35;3.75;;;1.65;;
59006;SDS011;44792;52.760;6.726;2023-04-25T13:06:00;1.42;;;1.20;;
59006;SDS011;44792;52.760;6.726;2023-04-25T13:08:26;3.13;;;1.40;;
59006;SDS011;44792;52.760;6.726;2023-04-25T13:10:52;7.00;;;1.52;;
59006;SDS011;44792;52.760;6.726;2023-04-25T13:13:17;1.80;;;1.40;;
59006;SDS011;44792;52.760;6.726;2023-04-25T13:15:43;7.13;;;3.03;;
59006;SDS011;44792;52.760;6.726;2023-04-25T13:18:09;7.53;;;1.45;;
59006;SDS011;44792;52.760;6.726;2023-04-25T13:20:35;2.33;;;1.30;;
59006;SDS011;44792;52.760;6.726;2023-04-25T13:23:01;2.17;;;1.30;;
59006;SDS011;44792;52.760;6.726;2023-04-25T13:25:26;5.63;;;1.45;;
59006;SDS011;44792;52.760;6.726;2023-04-25T13:27:52;3.45;;;1.67;;
59006;SDS011;44792;52.760;6.726;2023-04-25T13:30:18;3.88;;;1.55;;
59006;SDS011;44792;52.760;6.726;2023-04-25T13:32:43;3.63;;;1.35;;
59006;SDS011;44792;52.760;6.726;2023-04-25T13:35:10;2.67;;;1.48;;
59006;SDS011;44792;52.760;6.726;2023-04-25T13:37:37;3.50;;;1.40;;
59006;SDS011;44792;52.760;6.726;2023-04-25T13:40:04;4.95;;;1.33;;
59006;SDS011;44792;52.760;6.726;2023-04-25T13:42:35;4.70;;;1.75;;
59006;SDS011;44792;52.760;6.726;2023-04-25T13:45:01;6.57;;;1.77;;
59006;SDS011;44792;52.760;6.726;2023-04-25T13:47:28;2.08;;;1.35;;
59006;SDS011;44792;52.760;6.726;2023-04-25T13:49:55;6.53;;;1.52;;
59006;SDS011;44792;52.760;6.726;2023-04-25T13:52:21;3.05;;;1.55;;
59006;SDS011;44792;52.760;6.726;2023-04-25T13:54:49;4.75;;;1.60;;
59006;SDS011;44792;52.760;6.726;2023-04-25T13:57:15;2.15;;;1.42;;
59006;SDS011;44792;52.760;6.726;2023-04-25T13:59:41;5.38;;;1.58;;
59006;SDS011;44792;52.760;6.726;2023-04-25T14:02:07;4.68;;;1.40;;
59006;SDS011;44792;52.760;6.726;2023-04-25T14:04:33;2.10;;;1.45;;
59006;SDS011;44792;52.760;6.726;2023-04-25T14:06:58;4.18;;;1.80;;
59006;SDS011;44792;52.760;6.726;2023-04-25T14:09:24;2.05;;;1.42;;
59006;SDS011;44792;52.760;6.726;2023-04-25T14:11:53;1.98;;;1.27;;
59006;SDS011;44792;52.760;6.726;2023-04-25T14:14:20;2.95;;;1.42;;
59006;SDS011;44792;52.760;6.726;2023-04-25T14:16:47;2.33;;;1.60;;
59006;SDS011;44792;52.760;6.726;2023-04-25T14:19:13;1.38;;;1.23;;
59006;SDS011;44792;52.760;6.726;2023-04-25T14:21:40;3.97;;;1.40;;
59006;SDS011;44792;52.760;6.726;2023-04-25T14:24:06;8.98;;;1.95;;
59006;SDS011;44792;52.760;6.726;2023-04-25T14:26:33;4.35;;;1.50;;
59006;SDS011;44792;52.760;6.726;2023-04-25T14:29:00;5.00;;;1.50;;
59006;SDS011;44792;52.760;6.726;2023-04-25T14:31:26;6.20;;;1.55;;
59006;SDS011;44792;52.760;6.726;2023-04-25T14:33:52;4.70;;;1.55;;
59006;SDS011;44792;52.760;6.726;2023-04-25T14:36:18;2.45;;;1.40;;
59006;SDS011;44792;52.760;6.726;2023-04-25T14:38:44;4.50;;;1.50;;
59006;SDS011;44792;52.760;6.726;2023-04-25T14:41:10;4.85;;;1.50;;
59006;SDS011;44792;52.760;6.726;2023-04-25T14:43:36;2.70;;;1.30;;
59006;SDS011;44792;52.760;6.726;2023-04-25T14:46:02;3.53;;;1.58;;
59006;SDS011;44792;52.760;6.726;2023-04-25T14:48:28;3.45;;;1.60;;
59006;SDS011;44792;52.760;6.726;2023-04-25T14:50:54;4.25;;;1.55;;
59006;SDS011;44792;52.760;6.726;2023-04-25T14:53:21;7.72;;;2.10;;
59006;SDS011;44792;52.760;6.726;2023-04-25T14:55:47;6.35;;;1.63;;
59006;SDS011;44792;52.760;6.726;2023-04-25T14:58:13;5.28;;;1.63;;
59006;SDS011;44792;52.760;6.726;2023-04-25T15:00:39;4.28;;;1.83;;
59006;SDS011;44792;52.760;6.726;2023-04-25T15:03:05;5.82;;;1.85;;